Time;durP1;ratioP1;P1;durP2;ratioP2;P2;SDS_P1;SDS_P2;PMS_P1;PMS_P2;Temp;Humidity;BMP_temperature;BMP_pressure;BME280_temperature;BME280_humidity;BME280_pressure;Samples;Min_cycle;Max_cycle;Signal;HPM_P1;HPM_P2
2023/07/05 00:01:38;;;;;;;1999.90;999.90;;;18.70;99.90;;;;;;5032741;28;20543;-73
2023/07/05 00:04:04;;;;;;;1999.90;999.90;;;18.70;99.90;;;;;;5032843;28;20562;-74
2023/07/05 00:06:30;;;;;;;1999.90;999.90;;;18.70;99.90;;;;;;5032967;28;20175;-74
2023/07/05 00:08:57;;;;;;;1999.90;999.90;;;18.70;99.90;;;;;;5032927;28;20175;-73
2023/07/05 00:11:23;;;;;;;1999.90;999.90;;;18.70;99.90;;;;;;5032498;28;20583;-74
2023/07/05 00:13:48;;;;;;;1999.90;999.90;;;18.70;99.90;;;;;;5032717;28;20435;-74
2023/07/05 00:16:14;;;;;;;1999.90;999.90;;;18.70;99.90;;;;;;5032685;28;20231;-74
2023/07/05 00:18:40;;;;;;;1999.90;999.90;;;18.60;99.90;;;;;;5032799;28;20404;-74
2023/07/05 00:21:09;;;;;;;1999.90;999.90;;;18.60;99.90;;;;;;5031173;28;20793;-74
2023/07/05 00:23:37;;;;;;;1999.90;999.90;;;18.60;99.90;;;;;;5032576;28;20275;-74
2023/07/05 00:26:04;;;;;;;1999.90;999.90;;;18.60;99.90;;;;;;5032504;28;20420;-74
2023/07/05 00:28:32;;;;;;;1999.90;999.90;;;18.60;99.90;;;;;;5032569;28;20460;-73
2023/07/05 00:30:59;;;;;;;1999.90;999.90;;;18.60;99.90;;;;;;5032192;28;20471;-73
2023/07/05 00:33:24;;;;;;;1999.90;999.90;;;18.60;99.90;;;;;;5032157;28;20439;-74
2023/07/05 00:35:53;;;;;;;1999.90;999.90;;;18.60;99.90;;;;;;5032373;28;20417;-73
2023/07/05 00:38:19;;;;;;;1999.90;999.90;;;18.60;99.90;;;;;;5032390;28;20626;-73
2023/07/05 00:40:46;;;;;;;1999.90;999.90;;;18.60;99.90;;;;;;5032518;28;20894;-74
2023/07/05 00:43:13;;;;;;;1999.90;999.90;;;18.70;99.90;;;;;;5032043;28;20462;-73
2023/07/05 00:45:51;;;;;;;1999.90;999.90;;;18.70;99.90;;;;;;5032246;28;20474;-73
2023/07/05 00:48:42;;;;;;;1999.90;999.90;;;18.70;99.90;;;;;;5032310;28;20935;-73
2023/07/05 00:51:20;;;;;;;1999.90;999.90;;;18.80;99.90;;;;;;5031466;28;20793;-74
2023/07/05 00:53:46;;;;;;;1999.90;999.90;;;18.80;99.90;;;;;;5032020;28;20453;-74
2023/07/05 00:56:21;;;;;;;1999.90;999.90;;;18.70;99.90;;;;;;5032114;28;20512;-75
2023/07/05 00:58:47;;;;;;;1999.90;999.90;;;18.70;99.90;;;;;;5032193;28;20775;-73
2023/07/05 01:01:12;;;;;;;1999.90;999.90;;;18.70;99.90;;;;;;5031755;28;20423;-74
2023/07/05 01:03:39;;;;;;;1999.90;999.90;;;18.70;99.90;;;;;;5031949;28;20426;-73
2023/07/05 01:06:06;;;;;;;1999.90;999.90;;;18.70;99.90;;;;;;5032081;28;20201;-74
2023/07/05 01:08:32;;;;;;;1999.90;999.90;;;18.70;99.90;;;;;;5030594;28;20431;-73
2023/07/05 01:11:18;;;;;;;1999.90;999.90;;;18.70;99.90;;;;;;5031742;28;20405;-74
2023/07/05 01:14:01;;;;;;;1999.90;999.90;;;18.70;99.90;;;;;;5030740;28;20199;-74
2023/07/05 01:16:56;;;;;;;1999.90;999.90;;;18.70;99.90;;;;;;5031919;28;20486;-73
2023/07/05 01:19:37;;;;;;;1999.90;999.90;;;18.70;99.90;;;;;;5032084;28;20407;-73
2023/07/05 01:22:11;;;;;;;1999.90;999.90;;;18.70;99.90;;;;;;5031634;28;20399;-74
2023/07/05 01:25:05;;;;;;;1999.90;999.90;;;18.70;99.90;;;;;;5031997;28;20787;-74
2023/07/05 01:27:40;;;;;;;1999.90;999.90;;;18.70;99.90;;;;;;5032015;28;20545;-75
2023/07/05 01:30:08;;;;;;;1999.90;999.90;;;18.70;99.90;;;;;;5031898;28;20926;-73
2023/07/05 01:32:53;;;;;;;1999.90;999.90;;;18.60;99.90;;;;;;5031504;28;20402;-73
2023/07/05 01:35:31;;;;;;;1999.90;999.90;;;18.60;99.90;;;;;;5031837;28;20410;-73
2023/07/05 01:37:57;;;;;;;1999.90;999.90;;;18.60;99.90;;;;;;5031666;28;20450;-74
2023/07/05 01:40:25;;;;;;;1999.90;999.90;;;18.60;99.90;;;;;;5031807;28;20433;-73
2023/07/05 01:43:01;;;;;;;1999.90;999.90;;;18.60;99.90;;;;;;5031453;28;20403;-74
2023/07/05 01:46:00;;;;;;;1999.90;999.90;;;18.60;99.90;;;;;;5033112;28;20417;-75
2023/07/05 01:48:43;;;;;;;1999.90;999.90;;;18.60;99.90;;;;;;5003738;28;20425;-74
2023/07/05 01:51:18;;;;;;;1999.90;999.90;;;18.60;99.90;;;;;;5034146;28;20421;-74
2023/07/05 01:54:02;;;;;;;1999.90;999.90;;;18.60;99.90;;;;;;5035627;28;20456;-75
2023/07/05 01:56:35;;;;;;;1999.90;999.90;;;18.60;99.90;;;;;;5035471;28;20457;-75
2023/07/05 01:59:04;;;;;;;1999.90;999.90;;;18.70;99.90;;;;;;5035754;28;20807;-75
2023/07/05 02:01:32;;;;;;;1999.90;999.90;;;18.70;99.90;;;;;;5035083;28;20464;-74
2023/07/05 02:03:59;;;;;;;1999.90;999.90;;;18.70;99.90;;;;;;5035267;28;20926;-73
2023/07/05 02:06:26;;;;;;;1999.90;999.90;;;18.80;99.90;;;;;;5035334;28;20407;-75
2023/07/05 02:08:52;;;;;;;1999.90;999.90;;;18.90;99.90;;;;;;5035353;28;20422;-74
2023/07/05 02:11:18;;;;;;;1999.90;999.90;;;18.80;99.90;;;;;;5035083;28;20790;-74
2023/07/05 02:13:44;;;;;;;1999.90;999.90;;;18.90;99.90;;;;;;5034970;28;20948;-73
2023/07/05 02:16:10;;;;;;;1999.90;999.90;;;18.80;99.90;;;;;;5035207;28;20899;-75
2023/07/05 02:18:36;;;;;;;1999.90;999.90;;;18.70;99.90;;;;;;5035090;28;20438;-74
2023/07/05 02:21:01;;;;;;;1999.90;999.90;;;18.70;99.90;;;;;;5034849;28;20565;-69
2023/07/05 02:23:27;;;;;;;1999.90;999.90;;;18.50;99.90;;;;;;5035488;28;20189;-68
2023/07/05 02:25:53;;;;;;;1999.90;999.90;;;18.10;99.90;;;;;;5033742;28;20707;-67
2023/07/05 02:28:19;;;;;;;1999.90;999.90;;;17.80;99.90;;;;;;5034834;28;20174;-67
2023/07/05 02:30:44;;;;;;;1999.90;999.90;;;17.70;99.90;;;;;;5034814;28;20404;-67
2023/07/05 02:33:10;;;;;;;1999.90;999.90;;;17.50;99.90;;;;;;5033092;28;20276;-67
2023/07/05 02:35:39;;;;;;;1999.90;999.90;;;17.50;99.90;;;;;;5034694;28;20564;-67
2023/07/05 02:38:06;;;;;;;1999.90;999.90;;;17.40;99.90;;;;;;5034643;28;20213;-68
2023/07/05 02:40:32;;;;;;;1999.90;999.90;;;17.30;99.90;;;;;;5034807;28;20411;-68
2023/07/05 02:42:59;;;;;;;1999.90;999.90;;;17.20;99.90;;;;;;5034257;28;20403;-67
2023/07/05 02:45:26;;;;;;;1999.90;999.90;;;17.20;99.90;;;;;;5034596;28;20403;-67
2023/07/05 02:47:52;;;;;;;1999.90;999.90;;;17.10;99.90;;;;;;5034727;28;20432;-67
2023/07/05 02:50:17;;;;;;;1999.90;999.90;;;17.00;99.90;;;;;;5034724;28;20407;-68
2023/07/05 02:52:44;;;;;;;1999.90;999.90;;;17.00;99.90;;;;;;5034137;28;20176;-67
2023/07/05 02:55:10;;;;;;;1999.90;999.90;;;16.90;99.90;;;;;;5057599;22;20255;-68
2023/07/05 02:57:35;;;;;;;1999.90;999.90;;;16.90;99.90;;;;;;5014177;28;20511;-68
2023/07/05 03:00:02;;;;;;;1999.90;999.90;;;16.90;99.90;;;;;;5014391;28;20405;-67
2023/07/05 03:02:28;;;;;;;1999.90;999.90;;;16.90;99.90;;;;;;5014396;28;20213;-68
2023/07/05 03:04:53;;;;;;;1999.90;999.90;;;16.90;99.90;;;;;;5014254;28;20886;-68
2023/07/05 03:07:19;;;;;;;1999.90;999.90;;;16.80;99.90;;;;;;5014224;28;20169;-68
2023/07/05 03:09:48;;;;;;;1999.90;999.90;;;16.60;99.90;;;;;;5014283;28;20195;-67
2023/07/05 03:12:17;;;;;;;1999.90;999.90;;;16.50;99.90;;;;;;5013989;28;20274;-68
2023/07/05 03:14:43;;;;;;;1999.90;999.90;;;16.50;99.90;;;;;;5014009;28;20805;-68
2023/07/05 03:17:08;;;;;;;1999.90;999.90;;;16.50;99.90;;;;;;5014067;28;20457;-68
2023/07/05 03:19:34;;;;;;;1999.90;999.90;;;16.50;99.90;;;;;;5014081;28;20168;-68
2023/07/05 03:22:00;;;;;;;1999.90;999.90;;;16.50;99.90;;;;;;5013653;28;20172;-69
2023/07/05 03:24:25;;;;;;;1999.90;999.90;;;16.40;99.90;;;;;;5013929;28;20186;-68
2023/07/05 03:26:54;;;;;;;1999.90;999.90;;;16.40;99.90;;;;;;5013915;28;20181;-67
2023/07/05 03:29:19;;;;;;;1999.90;999.90;;;16.30;99.90;;;;;;5013837;28;20203;-68
2023/07/05 03:31:45;;;;;;;1999.90;999.90;;;16.20;99.90;;;;;;5013539;28;20921;-68
2023/07/05 03:34:11;;;;;;;1999.90;999.90;;;16.10;99.90;;;;;;5013776;28;20200;-69
2023/07/05 03:36:36;;;;;;;1999.90;999.90;;;16.00;99.90;;;;;;5013649;28;20564;-68
2023/07/05 03:39:02;;;;;;;1999.90;999.90;;;16.00;99.90;;;;;;5013789;28;20168;-68
2023/07/05 03:41:28;;;;;;;1999.90;999.90;;;15.80;99.90;;;;;;5013363;28;20180;-68
2023/07/05 03:44:00;;;;;;;1999.90;999.90;;;15.70;99.90;;;;;;5013455;28;20431;-68
2023/07/05 03:46:26;;;;;;;1999.90;999.90;;;15.70;99.90;;;;;;5013555;28;20215;-69
2023/07/05 03:48:52;;;;;;;1999.90;999.90;;;15.70;99.90;;;;;;5013481;28;20416;-68
2023/07/05 03:51:20;;;;;;;1999.90;999.90;;;15.70;99.90;;;;;;5013200;28;20409;-68
2023/07/05 03:53:51;;;;;;;1999.90;999.90;;;15.60;99.90;;;;;;5013235;28;20451;-67
2023/07/05 03:56:17;;;;;;;1999.90;999.90;;;15.50;99.90;;;;;;5013273;28;20449;-67
2023/07/05 03:58:43;;;;;;;1999.90;999.90;;;15.40;99.90;;;;;;5013352;28;20427;-68
2023/07/05 04:01:15;;;;;;;1999.90;999.90;;;15.40;99.90;;;;;;5013053;28;20429;-68
2023/07/05 04:03:42;;;;;;;1999.90;999.90;;;15.40;99.90;;;;;;5013291;28;20851;-68
2023/07/05 04:06:07;;;;;;;1999.90;999.90;;;15.30;99.90;;;;;;5013244;28;20408;-68
2023/07/05 04:08:33;;;;;;;1999.90;999.90;;;15.40;99.90;;;;;;5012656;28;20432;-68
2023/07/05 04:10:58;;;;;;;1999.90;999.90;;;15.30;99.90;;;;;;5012860;28;20262;-68
2023/07/05 04:13:24;;;;;;;1999.90;999.90;;;15.30;99.90;;;;;;5013095;28;20192;-67
2023/07/05 04:16:10;;;;;;;1999.90;999.90;;;15.30;99.90;;;;;;5012933;28;20176;-69
2023/07/05 04:18:36;;;;;;;1999.90;999.90;;;15.20;99.90;;;;;;5013126;28;20257;-68
2023/07/05 04:21:02;;;;;;;1999.90;999.90;;;15.30;99.90;;;;;;5012658;28;20404;-68
2023/07/05 04:23:28;;;;;;;1999.90;999.90;;;15.20;99.90;;;;;;5012736;28;20434;-67
2023/07/05 04:26:11;;;;;;;1999.90;999.90;;;15.20;99.90;;;;;;5012881;28;20434;-68
2023/07/05 04:28:38;;;;;;;1999.90;999.90;;;15.30;99.90;;;;;;5012906;28;20199;-69
2023/07/05 04:31:09;;;;;;;1999.90;999.90;;;15.30;99.90;;;;;;5012545;28;20406;-68
2023/07/05 04:33:35;;;;;;;1999.90;999.90;;;15.40;99.90;;;;;;5012697;28;20428;-67
2023/07/05 04:36:02;;;;;;;1999.90;999.90;;;15.40;99.90;;;;;;5012554;28;20602;-68
2023/07/05 04:38:28;;;;;;;1999.90;999.90;;;15.40;99.90;;;;;;5012595;28;20416;-69
2023/07/05 04:40:55;;;;;;;1999.90;999.90;;;15.50;99.90;;;;;;5012501;28;20404;-69
2023/07/05 04:43:21;;;;;;;1999.90;999.90;;;15.70;99.90;;;;;;5012503;28;20507;-68
2023/07/05 04:45:51;;;;;;;1999.90;999.90;;;15.50;99.90;;;;;;5012634;28;20446;-68
2023/07/05 04:48:16;;;;;;;1999.90;999.90;;;15.40;99.90;;;;;;5012652;28;20224;-68
2023/07/05 04:50:43;;;;;;;1999.90;999.90;;;15.50;99.90;;;;;;5012706;28;20423;-68
2023/07/05 04:53:08;;;;;;;1999.90;999.90;;;15.50;99.90;;;;;;5012153;28;20569;-68
2023/07/05 04:55:34;;;;;;;1999.90;999.90;;;15.50;99.90;;;;;;5012447;28;20410;-67
2023/07/05 04:58:03;;;;;;;1999.90;999.90;;;15.50;99.90;;;;;;5012326;28;20210;-67
2023/07/05 05:00:29;;;;;;;1999.90;999.90;;;15.50;99.90;;;;;;5012376;28;20713;-68
2023/07/05 05:02:55;;;;;;;1999.90;999.90;;;15.50;99.90;;;;;;5011998;28;20411;-68
2023/07/05 05:05:20;;;;;;;1999.90;999.90;;;15.50;99.90;;;;;;5012257;28;20879;-69
2023/07/05 05:07:46;;;;;;;1999.90;999.90;;;15.50;99.90;;;;;;5012239;28;20175;-69
2023/07/05 05:10:11;;;;;;;1999.90;999.90;;;15.50;99.90;;;;;;5012254;28;20545;-68
2023/07/05 05:12:37;;;;;;;1999.90;999.90;;;15.50;99.90;;;;;;5011952;28;20207;-67
2023/07/05 05:15:03;;;;;;;1999.90;999.90;;;15.50;99.90;;;;;;5012171;28;20643;-68
2023/07/05 05:17:28;;;;;;;1999.90;999.90;;;15.50;99.90;;;;;;5012053;28;20205;-68
2023/07/05 05:19:54;;;;;;;1999.90;999.90;;;15.60;99.90;;;;;;5012612;28;20911;-67
2023/07/05 05:22:19;;;;;;;1999.90;999.90;;;15.60;99.90;;;;;;5016122;28;20232;-66
2023/07/05 05:24:45;;;;;;;1999.90;999.90;;;15.60;99.90;;;;;;5016182;28;20185;-67
2023/07/05 05:27:10;;;;;;;1999.90;999.90;;;15.60;99.90;;;;;;5016172;28;20288;-67
2023/07/05 05:29:36;;;;;;;1999.90;999.90;;;15.60;99.90;;;;;;5016137;28;20520;-67
2023/07/05 05:32:02;;;;;;;1999.90;999.90;;;15.50;99.90;;;;;;5015708;28;20176;-67
2023/07/05 05:34:27;;;;;;;1999.90;999.90;;;15.60;99.90;;;;;;5015973;28;20196;-67
2023/07/05 05:36:53;;;;;;;1999.90;999.90;;;15.60;99.90;;;;;;5015927;28;20678;-67
2023/07/05 05:39:20;;;;;;;1999.90;999.90;;;15.60;99.90;;;;;;5016088;28;20184;-66
2023/07/05 05:41:46;;;;;;;1999.90;999.90;;;15.60;99.90;;;;;;5015728;28;20404;-67
2023/07/05 05:44:12;;;;;;;1999.90;999.90;;;15.60;99.90;;;;;;5015877;28;20501;-67
2023/07/05 05:46:37;;;;;;;1999.90;999.90;;;15.60;99.90;;;;;;5015827;28;20414;-67
2023/07/05 05:49:03;;;;;;;1999.90;999.90;;;15.50;99.90;;;;;;5015738;28;20185;-67
2023/07/05 05:51:29;;;;;;;1999.90;999.90;;;15.40;99.90;;;;;;5015736;28;20176;-68
2023/07/05 05:53:54;;;;;;;1999.90;999.90;;;15.40;99.90;;;;;;5015613;28;20247;-66
2023/07/05 05:56:20;;;;;;;1999.90;999.90;;;15.40;99.90;;;;;;5015579;28;20193;-67
2023/07/05 05:58:46;;;;;;;1999.90;999.90;;;15.40;99.90;;;;;;5015662;28;20189;-67
2023/07/05 06:01:12;;;;;;;1999.90;999.90;;;15.40;99.90;;;;;;5015219;28;20180;-67
2023/07/05 06:03:38;;;;;;;1999.90;999.90;;;15.50;99.90;;;;;;5015592;28;20421;-67
2023/07/05 06:06:03;;;;;;;1999.90;999.90;;;15.50;99.90;;;;;;5015488;28;20158;-67
2023/07/05 06:08:29;;;;;;;1999.90;999.90;;;15.50;99.90;;;;;;5015486;28;20172;-67
2023/07/05 06:11:00;;;;;;;1999.90;999.90;;;15.40;99.90;;;;;;5015195;28;20176;-66
2023/07/05 06:13:27;;;;;;;1999.90;999.90;;;15.50;99.90;;;;;;5015286;28;20188;-67
2023/07/05 06:15:57;;;;;;;1999.90;999.90;;;15.50;99.90;;;;;;5015115;28;20776;-67
2023/07/05 06:18:24;;;;;;;1999.90;999.90;;;15.60;99.90;;;;;;5015461;28;20901;-67
2023/07/05 06:20:50;;;;;;;1999.90;999.90;;;15.60;99.90;;;;;;5015230;28;20457;-67
2023/07/05 06:23:16;;;;;;;1999.90;999.90;;;15.70;99.90;;;;;;5014915;28;20902;-68
2023/07/05 06:25:47;;;;;;;1999.90;999.90;;;15.60;99.90;;;;;;5015163;28;20172;-67
2023/07/05 06:28:12;;;;;;;1999.90;999.90;;;15.70;99.90;;;;;;5015032;28;20175;-67
2023/07/05 06:30:38;;;;;;;1999.90;999.90;;;15.70;99.90;;;;;;5014565;28;20419;-68
2023/07/05 06:33:03;;;;;;;1999.90;999.90;;;15.70;99.90;;;;;;5014724;28;20604;-67
2023/07/05 06:35:30;;;;;;;1999.90;999.90;;;15.70;99.90;;;;;;5015060;28;20182;-67
2023/07/05 06:37:56;;;;;;;1999.90;999.90;;;15.70;99.90;;;;;;5014832;28;20207;-67
2023/07/05 06:40:22;;;;;;;1999.90;999.90;;;15.80;99.90;;;;;;5014874;28;20503;-67
2023/07/05 06:42:47;;;;;;;1999.90;999.90;;;15.70;99.90;;;;;;5014663;28;20849;-67
2023/07/05 06:45:13;;;;;;;1999.90;999.90;;;15.70;99.90;;;;;;5014624;28;20207;-66
2023/07/05 06:47:38;;;;;;;1999.90;999.90;;;15.70;99.90;;;;;;5014663;28;20212;-67
2023/07/05 06:50:05;;;;;;;1999.90;999.90;;;15.70;99.90;;;;;;5014664;28;20217;-69
2023/07/05 06:52:31;;;;;;;1999.90;999.90;;;15.60;99.90;;;;;;5014372;28;20220;-67
2023/07/05 06:54:56;;;;;;;1999.90;999.90;;;15.70;99.90;;;;;;5014448;28;20452;-68
2023/07/05 06:57:22;;;;;;;1999.90;999.90;;;15.70;99.90;;;;;;5014460;28;20194;-67
2023/07/05 06:59:48;;;;;;;1999.90;999.90;;;15.70;99.90;;;;;;5014332;28;21030;-66
2023/07/05 07:02:13;;;;;;;1999.90;999.90;;;15.70;99.90;;;;;;5014103;28;20172;-66
2023/07/05 07:04:39;;;;;;;1999.90;999.90;;;15.80;99.90;;;;;;5014431;28;20275;-68
2023/07/05 07:07:06;;;;;;;1999.90;999.90;;;15.80;99.90;;;;;;5014448;28;20179;-69
2023/07/05 07:09:32;;;;;;;1999.90;999.90;;;15.90;99.90;;;;;;5014680;28;20577;-68
2023/07/05 07:11:58;;;;;;;1999.90;999.90;;;16.00;99.90;;;;;;5014310;28;20420;-68
2023/07/05 07:14:25;;;;;;;1999.90;999.90;;;15.90;99.90;;;;;;5014282;28;20513;-68
2023/07/05 07:16:51;;;;;;;1999.90;999.90;;;16.00;99.90;;;;;;5014425;28;20242;-69
2023/07/05 07:19:17;;;;;;;1999.90;999.90;;;16.00;99.90;;;;;;5014475;28;20860;-69
2023/07/05 07:21:43;;;;;;;1999.90;999.90;;;15.90;99.90;;;;;;5013937;28;20470;-68
2023/07/05 07:24:09;;;;;;;1999.90;999.90;;;15.90;99.90;;;;;;5014004;28;20825;-68
2023/07/05 07:26:36;;;;;;;1999.90;999.90;;;15.90;99.90;;;;;;5014069;28;20417;-69
2023/07/05 07:29:02;;;;;;;1999.90;999.90;;;15.90;99.90;;;;;;5014033;28;20165;-69
2023/07/05 07:31:31;;;;;;;1999.90;999.90;;;15.90;99.90;;;;;;5013874;28;20415;-68
2023/07/05 07:34:00;;;;;;;1999.90;999.90;;;16.00;99.90;;;;;;5013791;28;20428;-69
2023/07/05 07:36:30;;;;;;;1999.90;999.90;;;16.00;99.90;;;;;;5013847;28;20501;-68
2023/07/05 07:38:57;;;;;;;1999.90;999.90;;;16.10;99.90;;;;;;5013827;28;20403;-68
2023/07/05 07:41:24;;;;;;;1999.90;999.90;;;16.20;99.90;;;;;;5013500;28;20407;-69
2023/07/05 07:43:52;;;;;;;1999.90;999.90;;;16.10;99.90;;;;;;5013214;28;20458;-69
2023/07/05 07:46:21;;;;;;;1999.90;999.90;;;16.10;99.90;;;;;;5013682;28;20788;-67
2023/07/05 07:48:49;;;;;;;1999.90;999.90;;;16.00;99.90;;;;;;5013561;28;20461;-67
2023/07/05 07:51:16;;;;;;;1999.90;999.90;;;16.10;99.90;;;;;;5013293;28;20415;-67
2023/07/05 07:53:41;;;;;;;1999.90;999.90;;;16.10;99.90;;;;;;5013193;28;20473;-67
2023/07/05 07:56:15;;;;;;;1999.90;999.90;;;16.00;99.90;;;;;;5013245;28;20408;-67
2023/07/05 07:58:42;;;;;;;1999.90;999.90;;;16.00;99.90;;;;;;5013328;28;20172;-68
2023/07/05 08:01:11;;;;;;;1999.90;999.90;;;16.10;99.90;;;;;;5013184;28;20495;-67
2023/07/05 08:03:37;;;;;;;1999.90;999.90;;;16.20;99.90;;;;;;5013341;28;20459;-67
2023/07/05 08:06:03;;;;;;;1999.90;999.90;;;16.20;99.90;;;;;;5013187;28;20411;-68
2023/07/05 08:08:29;;;;;;;1999.90;999.90;;;16.40;99.90;;;;;;5013085;28;20406;-68
2023/07/05 08:10:54;;;;;;;1999.90;999.90;;;16.50;99.90;;;;;;5012945;28;20222;-70
2023/07/05 08:13:20;;;;;;;1999.90;999.90;;;16.60;99.90;;;;;;5012962;28;20263;-69
2023/07/05 08:15:45;;;;;;;1999.90;999.90;;;16.60;99.90;;;;;;5013027;28;20528;-67
2023/07/05 08:18:11;;;;;;;1999.90;999.90;;;16.70;99.90;;;;;;5012935;28;20197;-69
2023/07/05 08:20:36;;;;;;;1999.90;999.90;;;16.80;99.90;;;;;;5012986;28;20172;-67
2023/07/05 08:23:02;;;;;;;1999.90;999.90;;;16.80;99.90;;;;;;5012674;28;20260;-67
2023/07/05 08:25:27;;;;;;;1999.90;999.90;;;16.90;99.90;;;;;;5012781;28;20197;-68
2023/07/05 08:27:53;;;;;;;1999.90;999.90;;;16.90;99.90;;;;;;5012911;28;20173;-68
2023/07/05 08:30:18;;;;;;;1999.90;999.90;;;17.00;99.90;;;;;;5012801;28;20176;-67
2023/07/05 08:32:44;;;;;;;1999.90;999.90;;;17.00;99.90;;;;;;5012604;28;20679;-68
2023/07/05 08:35:10;;;;;;;1999.90;999.90;;;16.90;99.90;;;;;;5012728;28;20685;-68
2023/07/05 08:37:35;;;;;;;1999.90;999.90;;;16.80;99.90;;;;;;5012573;28;20573;-68
2023/07/05 08:40:01;;;;;;;1999.90;999.90;;;16.90;99.90;;;;;;5012681;28;20171;-68
2023/07/05 08:42:35;;;;;;;1999.90;999.90;;;16.90;99.90;;;;;;5012543;28;20255;-67
2023/07/05 08:45:14;;;;;;;1999.90;999.90;;;16.90;99.90;;;;;;5012537;28;20188;-68
2023/07/05 08:47:50;;;;;;;1999.90;999.90;;;16.90;99.90;;;;;;5012584;28;20435;-68
2023/07/05 08:50:43;;;;;;;1999.90;999.90;;;17.10;99.90;;;;;;5012540;28;20419;-68
2023/07/05 08:53:19;;;;;;;1999.90;999.90;;;17.50;99.90;;;;;;5009988;28;20431;-68
2023/07/05 08:55:54;;;;;;;1999.90;999.90;;;17.30;99.90;;;;;;5012903;28;20453;-68
2023/07/05 08:58:25;;;;;;;1999.90;999.90;;;17.40;99.90;;;;;;5012426;28;20751;-68
2023/07/05 09:00:57;;;;;;;1999.90;999.90;;;17.40;99.90;;;;;;5012568;28;20407;-68
2023/07/05 09:03:24;;;;;;;1999.90;999.90;;;17.50;99.90;;;;;;5012322;28;20968;-68
2023/07/05 09:06:18;;;;;;;1999.90;999.90;;;17.50;99.90;;;;;;5012417;28;20890;-67
2023/07/05 09:09:12;;;;;;;1999.90;999.90;;;17.40;99.90;;;;;;5012243;28;20399;-69
2023/07/05 09:12:07;;;;;;;1999.90;999.90;;;17.60;99.90;;;;;;5011995;28;20527;-68
2023/07/05 09:14:52;;;;;;;1999.90;999.90;;;17.70;99.90;;;;;;5012133;28;20491;-68
2023/07/05 09:17:42;;;;;;;1999.90;999.90;;;17.90;99.90;;;;;;5012034;28;20459;-68
2023/07/05 09:20:13;;;;;;;1999.90;999.90;;;18.00;99.90;;;;;;5012191;28;20415;-68
2023/07/05 09:22:41;;;;;;;1999.90;999.90;;;18.10;99.90;;;;;;5011851;28;20411;-68
2023/07/05 09:25:13;;;;;;;1999.90;999.90;;;18.10;99.90;;;;;;5012113;28;20951;-69
2023/07/05 09:27:43;;;;;;;1999.90;999.90;;;18.00;99.90;;;;;;5012006;28;20409;-71
2023/07/05 09:30:14;;;;;;;1999.90;999.90;;;18.10;99.90;;;;;;5012169;28;20423;-69
2023/07/05 09:32:49;;;;;;;1999.90;999.90;;;18.20;99.90;;;;;;5011923;28;20802;-68
2023/07/05 09:35:25;;;;;;;1999.90;999.90;;;18.30;99.90;;;;;;5011943;28;20432;-69
2023/07/05 09:38:18;;;;;;;1999.90;999.90;;;18.50;99.90;;;;;;5011867;28;20495;-70
2023/07/05 09:41:20;;;;;;;1999.90;999.90;;;18.80;99.90;;;;;;5012040;28;20819;-68
2023/07/05 09:43:46;;;;;;;1999.90;999.90;;;18.80;99.90;;;;;;5011930;28;20419;-68
2023/07/05 09:46:28;;;;;;;1999.90;999.90;;;18.70;99.90;;;;;;5011976;28;20400;-69
2023/07/05 09:48:55;;;;;;;1999.90;999.90;;;18.80;99.90;;;;;;5011939;28;20602;-69
2023/07/05 09:51:22;;;;;;;1999.90;999.90;;;18.90;99.90;;;;;;5011648;28;20410;-69
2023/07/05 09:54:07;;;;;;;1999.90;999.90;;;18.90;99.90;;;;;;5011731;28;20443;-69
2023/07/05 09:56:54;;;;;;;1999.90;999.90;;;19.10;99.90;;;;;;5011738;28;20892;-70
2023/07/05 09:59:21;;;;;;;1999.90;999.90;;;19.00;99.90;;;;;;5011851;28;20417;-68
2023/07/05 10:01:53;;;;;;;1999.90;999.90;;;19.00;99.90;;;;;;5011567;28;20407;-70
2023/07/05 10:04:24;;;;;;;1999.90;999.90;;;19.20;99.90;;;;;;5011591;28;20428;-68
2023/07/05 10:06:50;;;;;;;1999.90;999.90;;;19.40;99.90;;;;;;5023252;28;20410;-69
2023/07/05 10:09:19;;;;;;;1999.90;999.90;;;19.40;98.40;;;;;;5035088;28;20499;-69
2023/07/05 10:11:47;;;;;;;1999.90;999.90;;;19.40;98.40;;;;;;5022002;28;20516;-69
2023/07/05 10:14:20;;;;;;;1999.90;999.90;;;19.20;99.90;;;;;;5007920;28;20490;-68
2023/07/05 10:16:48;;;;;;;1999.90;999.90;;;19.10;99.90;;;;;;5011118;28;20470;-69
2023/07/05 10:19:40;;;;;;;1999.90;999.90;;;19.10;99.80;;;;;;5010501;28;20409;-69
2023/07/05 10:22:28;;;;;;;1999.90;999.90;;;19.30;95.90;;;;;;5010856;28;20435;-69
2023/07/05 10:25:01;;;;;;;1999.90;999.90;;;19.50;95.90;;;;;;5010384;28;20455;-67
2023/07/05 10:27:37;;;;;;;1999.90;999.90;;;19.50;94.50;;;;;;5011315;28;20436;-69
2023/07/05 10:30:03;;;;;;;1999.90;999.90;;;19.50;95.80;;;;;;5012075;28;20432;-68
2023/07/05 10:32:32;;;;;;;1999.90;999.90;;;19.50;92.30;;;;;;5010504;28;20490;-70
2023/07/05 10:34:58;;;;;;;1999.90;999.90;;;19.70;93.00;;;;;;5012298;28;20194;-67
2023/07/05 10:37:29;;;;;;;1999.90;999.90;;;19.80;91.90;;;;;;5014665;28;20458;-69
2023/07/05 10:40:00;;;;;;;1999.90;999.90;;;19.80;93.30;;;;;;5013384;28;20411;-68
2023/07/05 10:42:26;;;;;;;1999.90;999.90;;;20.00;91.50;;;;;;5012579;28;20423;-70
2023/07/05 10:44:53;;;;;;;1999.90;999.90;;;20.20;87.40;;;;;;5011131;28;20474;-68
2023/07/05 10:47:20;;;;;;;1999.90;999.90;;;20.30;84.20;;;;;;5014485;28;20448;-68
2023/07/05 10:49:48;;;;;;;1999.90;999.90;;;20.10;86.20;;;;;;5011517;28;20446;-68
2023/07/05 10:52:16;;;;;;;1999.90;999.90;;;19.90;90.00;;;;;;5010794;28;20427;-68
2023/07/05 10:54:51;;;;;;;1999.90;999.90;;;19.60;90.10;;;;;;5010450;28;20536;-69
2023/07/05 10:57:23;;;;;;;1999.90;999.90;;;19.80;91.30;;;;;;5009675;28;20807;-68
2023/07/05 11:00:11;;;;;;;1999.90;999.90;;;19.90;90.40;;;;;;5009440;28;20410;-70
2023/07/05 11:02:45;;;;;;;1999.90;999.90;;;19.80;85.60;;;;;;5009779;28;20831;-69
2023/07/05 11:05:35;;;;;;;1999.90;999.90;;;19.60;86.40;;;;;;5010192;28;20442;-68
2023/07/05 11:08:02;;;;;;;1999.90;999.90;;;19.60;89.20;;;;;;5009716;28;20412;-69
2023/07/05 11:10:32;;;;;;;1999.90;999.90;;;19.90;89.20;;;;;;5009647;28;20502;-70
2023/07/05 11:12:58;;;;;;;1999.90;999.90;;;20.10;82.30;;;;;;5009743;28;20419;-70
2023/07/05 11:15:24;;;;;;;1999.90;999.90;;;20.20;84.80;;;;;;5009495;28;20435;-68
2023/07/05 11:17:50;;;;;;;1999.90;999.90;;;20.40;76.40;;;;;;5009628;28;20249;-67
2023/07/05 11:20:35;;;;;;;1999.90;999.90;;;20.60;76.70;;;;;;5009745;28;20670;-69
2023/07/05 11:23:00;;;;;;;1999.90;999.90;;;20.60;69.70;;;;;;5010579;28;20228;-68
2023/07/05 11:25:54;;;;;;;1999.90;999.90;;;20.40;70.40;;;;;;5008958;28;20455;-67
2023/07/05 11:28:35;;;;;;;1999.90;999.90;;;20.00;68.60;;;;;;5011084;28;20814;-68
2023/07/05 11:31:01;;;;;;;1999.90;999.90;;;19.90;74.70;;;;;;5009690;28;20425;-68
2023/07/05 11:33:27;;;;;;;1999.90;999.90;;;19.70;75.40;;;;;;5011784;28;20428;-68
2023/07/05 11:35:54;;;;;;;1999.90;999.90;;;19.60;80.70;;;;;;5010133;28;20586;-68
2023/07/05 11:38:39;;;;;;;1999.90;999.90;;;19.60;83.00;;;;;;5011517;28;20297;-67
2023/07/05 11:41:25;;;;;;;1999.90;999.90;;;19.80;86.80;;;;;;5008371;28;20427;-68
2023/07/05 11:44:00;;;;;;;1999.90;999.90;;;20.20;85.30;;;;;;5009794;28;21185;-68
2023/07/05 11:46:45;;;;;;;1999.90;999.90;;;20.50;87.20;;;;;;5008825;28;20477;-68
2023/07/05 11:49:23;;;;;;;1999.90;999.90;;;20.60;83.20;;;;;;5009282;28;20792;-69
2023/07/05 11:52:01;;;;;;;1999.90;999.90;;;20.80;87.40;;;;;;5009337;28;20441;-69
2023/07/05 11:55:05;;;;;;;1999.90;999.90;;;20.90;80.80;;;;;;5008900;28;20535;-69
2023/07/05 11:57:46;;;;;;;1999.90;999.90;;;21.00;83.80;;;;;;4993944;28;20576;-69
2023/07/05 12:00:17;;;;;;;1999.90;999.90;;;21.10;82.10;;;;;;5009588;28;20955;-69
2023/07/05 12:02:58;;;;;;;1999.90;999.90;;;21.10;79.00;;;;;;5008349;28;20480;-68
2023/07/05 12:05:27;;;;;;;1999.90;999.90;;;20.70;78.90;;;;;;5006081;28;20403;-69
2023/07/05 12:08:04;;;;;;;1999.90;999.90;;;20.50;85.90;;;;;;5006930;28;20685;-68
2023/07/05 12:10:33;;;;;;;1999.90;999.90;;;20.30;89.40;;;;;;5007045;28;20419;-68
2023/07/05 12:12:58;;;;;;;1999.90;999.90;;;19.90;90.80;;;;;;5007073;28;20419;-69